Time;durP1;ratioP1;P1;durP2;ratioP2;P2;SDS_P1;SDS_P2;PMS_P1;PMS_P2;Temp;Humidity;BMP_temperature;BMP_pressure;BME280_temperature;BME280_humidity;BME280_pressure;Samples;Min_cycle;Max_cycle;Signal;HPM_P1;HPM_P2
2022/03/19 00:00:33;;;;;;;7.82;2.63;;;11.80;62.70;;;;;;5052087;28;20112;-61
2022/03/19 00:02:59;;;;;;;8.25;2.63;;;11.80;63.00;;;;;;5051440;28;20037;-64
2022/03/19 00:05:24;;;;;;;6.30;2.25;;;11.80;63.00;;;;;;5052444;28;20053;-65
2022/03/19 00:07:50;;;;;;;7.10;2.47;;;11.70;62.90;;;;;;5051941;28;20028;-65
2022/03/19 00:10:17;;;;;;;4.82;2.60;;;11.70;62.90;;;;;;5052084;28;20041;-65
2022/03/19 00:12:43;;;;;;;9.48;2.50;;;11.70;63.10;;;;;;5051031;28;20028;-65
2022/03/19 00:15:09;;;;;;;8.25;2.97;;;11.70;63.20;;;;;;5050379;28;20029;-65
2022/03/19 00:17:36;;;;;;;12.63;3.17;;;11.60;63.30;;;;;;5051972;28;20057;-65
2022/03/19 00:20:03;;;;;;;9.15;2.30;;;11.60;63.40;;;;;;5052041;28;20438;-65
2022/03/19 00:22:29;;;;;;;9.95;2.47;;;11.60;63.50;;;;;;5052109;28;20032;-65
2022/03/19 00:24:55;;;;;;;10.57;2.92;;;11.60;63.60;;;;;;5051889;28;20032;-65
2022/03/19 00:27:20;;;;;;;6.45;2.53;;;11.50;63.80;;;;;;5053323;28;20033;-65
2022/03/19 00:29:46;;;;;;;8.70;2.22;;;11.50;64.00;;;;;;5062149;28;20037;-65
2022/03/19 00:32:12;;;;;;;9.45;2.88;;;11.40;64.10;;;;;;5050713;28;20021;-65
2022/03/19 00:34:37;;;;;;;7.38;2.95;;;11.40;64.10;;;;;;5051653;28;20017;-64
2022/03/19 00:37:03;;;;;;;13.88;4.03;;;11.40;64.20;;;;;;5036140;28;20026;-65
2022/03/19 00:39:29;;;;;;;11.60;3.83;;;11.30;64.20;;;;;;5038467;28;20037;-65
2022/03/19 00:41:54;;;;;;;10.48;3.60;;;11.30;64.40;;;;;;5046603;28;20411;-64
2022/03/19 00:44:21;;;;;;;8.73;3.53;;;11.30;64.50;;;;;;5039957;28;20025;-59
2022/03/19 00:46:47;;;;;;;10.75;3.90;;;11.30;64.70;;;;;;5051548;28;20032;-64
2022/03/19 00:49:13;;;;;;;8.88;3.85;;;11.20;64.90;;;;;;5051224;28;20052;-64
2022/03/19 00:51:40;;;;;;;9.80;3.92;;;11.20;65.00;;;;;;5050216;28;20067;-64
2022/03/19 00:54:07;;;;;;;11.43;3.95;;;11.20;65.10;;;;;;5050961;28;20108;-65
2022/03/19 00:56:34;;;;;;;9.88;3.80;;;11.10;65.00;;;;;;5050621;28;20028;-60
2022/03/19 00:59:00;;;;;;;10.63;3.80;;;11.10;65.00;;;;;;5050186;28;20024;-60
2022/03/19 01:01:26;;;;;;;11.18;4.18;;;11.10;65.10;;;;;;5050854;28;20040;-60
2022/03/19 01:03:52;;;;;;;7.63;3.30;;;11.00;65.40;;;;;;5050419;28;20074;-59
2022/03/19 01:06:18;;;;;;;8.57;4.10;;;11.00;65.50;;;;;;5049680;28;20059;-59
2022/03/19 01:08:43;;;;;;;14.07;4.30;;;11.00;65.60;;;;;;5051120;28;20033;-59
2022/03/19 01:11:09;;;;;;;16.10;4.57;;;11.00;65.60;;;;;;5043746;28;20367;-59
2022/03/19 01:13:35;;;;;;;15.85;4.82;;;11.00;65.50;;;;;;5047372;28;20542;-59
2022/03/19 01:16:02;;;;;;;12.57;4.47;;;10.90;65.60;;;;;;5051064;28;20035;-64
2022/03/19 01:18:28;;;;;;;12.90;4.43;;;10.90;65.80;;;;;;5050875;28;20025;-60
2022/03/19 01:20:54;;;;;;;12.18;4.10;;;10.90;66.00;;;;;;5050777;28;20415;-59
2022/03/19 01:23:20;;;;;;;16.13;4.32;;;10.80;66.00;;;;;;5049894;28;20136;-65
2022/03/19 01:25:46;;;;;;;13.38;3.95;;;10.80;66.20;;;;;;5050739;28;20037;-65
2022/03/19 01:28:11;;;;;;;9.75;4.28;;;10.80;66.30;;;;;;5050034;28;20056;-59
2022/03/19 01:30:37;;;;;;;9.02;4.03;;;10.70;66.50;;;;;;5049320;28;20037;-64
2022/03/19 01:33:03;;;;;;;12.93;4.60;;;10.70;66.70;;;;;;5050125;28;20044;-65
2022/03/19 01:35:29;;;;;;;8.85;4.05;;;10.70;66.60;;;;;;5048661;28;20019;-64
2022/03/19 01:37:54;;;;;;;13.98;4.88;;;10.70;66.50;;;;;;5050821;28;20083;-65
2022/03/19 01:40:21;;;;;;;10.50;4.97;;;10.60;66.90;;;;;;5050302;28;20064;-65
2022/03/19 01:42:49;;;;;;;9.75;4.35;;;10.60;67.00;;;;;;5049371;28;20489;-64
2022/03/19 01:45:20;;;;;;;9.90;4.70;;;10.60;66.90;;;;;;5034121;28;20204;-64
2022/03/19 01:47:49;;;;;;;8.45;4.90;;;10.60;67.10;;;;;;5050263;28;20539;-64
2022/03/19 01:50:17;;;;;;;11.07;5.30;;;10.60;67.10;;;;;;5050351;28;20028;-65
2022/03/19 01:52:43;;;;;;;11.52;5.07;;;10.60;67.20;;;;;;5049463;28;21125;-65
2022/03/19 01:55:11;;;;;;;13.13;6.00;;;10.60;67.30;;;;;;5049866;28;20033;-65
2022/03/19 01:57:42;;;;;;;9.00;4.57;;;10.50;67.40;;;;;;5047598;28;20090;-64
2022/03/19 02:00:12;;;;;;;9.63;4.30;;;10.50;67.50;;;;;;5050037;28;20036;-64
2022/03/19 02:02:38;;;;;;;15.48;5.22;;;10.50;67.60;;;;;;5049217;28;20115;-64
2022/03/19 02:05:04;;;;;;;14.13;5.18;;;10.40;67.60;;;;;;5049937;28;20094;-64
2022/03/19 02:07:31;;;;;;;12.88;5.10;;;10.40;67.60;;;;;;5048020;28;20400;-65
2022/03/19 02:09:58;;;;;;;14.65;4.60;;;10.40;67.70;;;;;;5050295;28;20476;-65
2022/03/19 02:12:24;;;;;;;13.75;5.50;;;10.40;67.70;;;;;;5049025;28;20518;-65
2022/03/19 02:14:50;;;;;;;10.43;5.15;;;10.40;67.70;;;;;;5048323;28;20029;-65
2022/03/19 02:17:16;;;;;;;16.42;5.13;;;10.30;67.70;;;;;;5049189;28;20497;-60
2022/03/19 02:19:53;;;;;;;10.18;4.63;;;10.30;67.80;;;;;;5049692;28;20037;-59
2022/03/19 02:22:26;;;;;;;8.70;4.55;;;10.20;68.00;;;;;;5048810;28;20052;-59
2022/03/19 02:27:37;;;;;;;9.85;4.35;;;10.20;67.90;;;;;;5037710;28;20055;-60
2022/03/19 02:30:05;;;;;;;12.57;4.63;;;10.20;67.90;;;;;;5049652;28;20029;-61
2022/03/19 02:32:31;;;;;;;9.57;4.85;;;10.20;68.00;;;;;;5048853;28;20032;-59
2022/03/19 02:34:56;;;;;;;15.55;5.35;;;10.10;68.00;;;;;;5049264;28;20113;-60
2022/03/19 02:37:22;;;;;;;15.60;5.47;;;10.10;68.20;;;;;;5049398;28;20483;-64
2022/03/19 02:39:48;;;;;;;8.85;4.13;;;10.10;68.30;;;;;;5043116;28;20472;-64
2022/03/19 02:42:19;;;;;;;13.82;4.68;;;10.10;68.20;;;;;;5048764;28;20078;-64
2022/03/19 02:44:45;;;;;;;12.48;5.22;;;10.00;68.20;;;;;;5049161;28;20087;-60
2022/03/19 02:47:11;;;;;;;13.32;5.22;;;10.00;68.40;;;;;;5048999;28;20028;-59
2022/03/19 02:49:37;;;;;;;21.75;4.85;;;10.00;68.30;;;;;;5049594;28;20104;-59
2022/03/19 02:52:04;;;;;;;11.45;4.90;;;10.00;68.30;;;;;;5049225;28;20498;-59
2022/03/19 02:54:31;;;;;;;15.57;4.82;;;10.00;68.40;;;;;;5048297;28;20120;-59
2022/03/19 02:56:58;;;;;;;10.15;4.97;;;9.90;68.40;;;;;;5048809;28;20017;-59
2022/03/19 02:59:32;;;;;;;11.25;4.72;;;9.90;68.40;;;;;;5042113;28;20029;-59
2022/03/19 03:02:00;;;;;;;14.02;5.00;;;9.90;68.40;;;;;;5047099;28;20029;-59
2022/03/19 03:04:27;;;;;;;11.10;4.40;;;9.90;68.40;;;;;;5047116;28;20044;-60
2022/03/19 03:06:56;;;;;;;10.80;5.40;;;9.90;68.50;;;;;;5049331;28;20025;-59
2022/03/19 03:09:24;;;;;;;16.60;4.97;;;9.80;68.40;;;;;;5048942;28;20023;-60
2022/03/19 03:11:51;;;;;;;14.73;5.18;;;9.80;68.40;;;;;;5048665;28;20043;-59
2022/03/19 03:14:20;;;;;;;12.77;5.03;;;9.80;68.60;;;;;;5047654;28;20033;-60
2022/03/19 03:16:46;;;;;;;12.02;4.88;;;9.70;68.60;;;;;;5048791;28;20033;-60
2022/03/19 03:19:12;;;;;;;13.15;5.20;;;9.70;68.50;;;;;;5048414;28;20018;-59
2022/03/19 03:21:41;;;;;;;11.70;5.68;;;9.70;68.40;;;;;;5048941;28;20025;-59
2022/03/19 03:24:09;;;;;;;14.32;4.88;;;9.80;68.50;;;;;;5048426;28;20082;-59
2022/03/19 03:26:37;;;;;;;11.68;5.05;;;9.80;68.40;;;;;;5047802;28;20500;-60
2022/03/19 03:29:04;;;;;;;10.57;4.90;;;9.80;68.40;;;;;;5048785;28;20047;-60
2022/03/19 03:31:30;;;;;;;8.77;4.50;;;9.70;68.20;;;;;;5047352;28;20047;-60
2022/03/19 03:33:56;;;;;;;10.55;4.75;;;9.70;68.30;;;;;;5048673;28;20499;-60
2022/03/19 03:36:22;;;;;;;14.20;5.38;;;9.70;68.30;;;;;;5048899;28;20033;-60
2022/03/19 03:38:48;;;;;;;10.77;5.30;;;9.70;68.40;;;;;;5048878;28;20590;-65
2022/03/19 03:41:14;;;;;;;9.20;5.00;;;9.70;68.40;;;;;;5048375;28;20031;-65
2022/03/19 03:43:40;;;;;;;14.93;5.50;;;9.70;68.40;;;;;;5047875;28;20102;-65
2022/03/19 03:46:06;;;;;;;9.98;5.40;;;9.70;68.50;;;;;;5063613;28;20032;-65
2022/03/19 03:48:35;;;;;;;11.32;5.05;;;9.70;68.50;;;;;;5048401;28;20033;-65
2022/03/19 03:51:01;;;;;;;16.42;5.53;;;9.70;68.50;;;;;;5048402;28;20025;-65
2022/03/19 03:53:29;;;;;;;16.58;6.03;;;9.70;68.60;;;;;;5048244;28;20087;-65
2022/03/19 03:55:54;;;;;;;12.77;5.45;;;9.70;68.50;;;;;;5048704;28;20075;-65
2022/03/19 03:58:22;;;;;;;9.73;4.78;;;9.70;68.60;;;;;;5047769;28;20609;-65
2022/03/19 04:00:50;;;;;;;10.77;4.95;;;9.70;68.60;;;;;;5048513;28;20074;-65
2022/03/19 04:03:15;;;;;;;11.38;5.57;;;9.70;68.60;;;;;;5046210;28;20033;-65
2022/03/19 04:05:41;;;;;;;14.05;6.15;;;9.60;68.70;;;;;;5047998;28;20503;-65
2022/03/19 04:08:07;;;;;;;14.48;5.57;;;9.60;68.70;;;;;;5048364;28;20033;-65
2022/03/19 04:10:32;;;;;;;9.77;5.50;;;9.60;68.80;;;;;;5048372;28;20029;-65
2022/03/19 04:12:59;;;;;;;14.75;6.32;;;9.60;68.90;;;;;;5047662;28;20064;-65
2022/03/19 04:15:25;;;;;;;17.25;5.68;;;9.60;69.00;;;;;;5047557;28;20416;-65
2022/03/19 04:17:51;;;;;;;14.57;6.00;;;9.50;69.00;;;;;;5048143;28;20542;-64
2022/03/19 04:20:17;;;;;;;10.77;5.30;;;9.50;69.10;;;;;;5048155;28;20033;-64
2022/03/19 04:22:45;;;;;;;12.02;5.97;;;9.50;69.20;;;;;;5047888;28;20044;-64
2022/03/19 04:25:16;;;;;;;10.23;5.63;;;9.40;69.40;;;;;;5048451;28;20095;-64
2022/03/19 04:27:44;;;;;;;9.55;5.20;;;9.40;69.40;;;;;;5050952;28;20036;-64
2022/03/19 04:30:13;;;;;;;12.10;5.50;;;9.40;69.50;;;;;;5051655;28;20503;-64
2022/03/19 04:32:46;;;;;;;9.00;5.40;;;9.40;69.50;;;;;;5051238;28;20040;-64
2022/03/19 04:38:18;;;;;;;13.68;5.85;;;9.30;69.50;;;;;;5064419;28;20029;-59
2022/03/19 04:40:45;;;;;;;15.90;5.95;;;9.30;69.50;;;;;;5040818;28;20601;-65
2022/03/19 04:43:11;;;;;;;11.60;5.35;;;9.30;69.40;;;;;;5049776;28;20371;-65
2022/03/19 04:45:38;;;;;;;12.27;5.30;;;9.20;69.40;;;;;;5045921;28;20021;-64
2022/03/19 04:48:05;;;;;;;16.08;5.63;;;9.20;69.40;;;;;;5047752;28;20130;-63
2022/03/19 04:50:30;;;;;;;13.25;6.10;;;9.20;69.50;;;;;;5057386;28;20166;-60
2022/03/19 04:52:58;;;;;;;11.60;5.47;;;9.20;69.50;;;;;;5050706;28;20104;-59
2022/03/19 04:55:24;;;;;;;12.55;5.40;;;9.10;69.70;;;;;;5041877;28;20037;-59
2022/03/19 04:57:50;;;;;;;14.70;5.15;;;9.10;69.70;;;;;;5046900;28;20037;-65
2022/03/19 05:00:17;;;;;;;15.18;5.47;;;9.10;69.70;;;;;;5050943;28;20035;-64
2022/03/19 05:02:44;;;;;;;14.15;5.38;;;9.10;69.70;;;;;;5050736;28;20039;-64
2022/03/19 05:05:10;;;;;;;16.17;5.82;;;9.10;69.80;;;;;;5049512;28;20098;-64
2022/03/19 05:07:37;;;;;;;12.68;5.47;;;9.00;69.80;;;;;;5050920;28;20037;-65
2022/03/19 05:12:52;;;;;;;12.63;5.32;;;9.00;70.00;;;;;;5050946;28;20063;-64
2022/03/19 05:15:18;;;;;;;17.13;6.10;;;8.90;69.90;;;;;;5043572;28;20041;-64
2022/03/19 05:17:45;;;;;;;11.98;5.32;;;8.90;70.10;;;;;;5050561;28;20443;-65
2022/03/19 05:20:12;;;;;;;11.80;5.10;;;8.90;70.20;;;;;;5050058;28;20091;-64
2022/03/19 05:22:38;;;;;;;10.52;5.60;;;8.90;70.20;;;;;;5050664;28;20029;-64
2022/03/19 05:25:05;;;;;;;14.88;4.78;;;8.90;70.20;;;;;;5050763;28;20024;-59
2022/03/19 05:27:31;;;;;;;8.85;4.90;;;8.90;70.10;;;;;;5050013;28;20502;-59
2022/03/19 05:29:57;;;;;;;13.18;5.47;;;8.80;70.00;;;;;;5050621;28;20065;-64
2022/03/19 05:32:23;;;;;;;13.57;5.65;;;8.80;70.00;;;;;;5049749;28;20058;-60
2022/03/19 05:34:49;;;;;;;10.82;5.15;;;8.80;70.20;;;;;;5049683;28;20022;-60
2022/03/19 05:37:16;;;;;;;10.48;4.72;;;8.70;70.20;;;;;;5048288;28;20107;-65
2022/03/19 05:39:43;;;;;;;11.00;5.32;;;8.70;70.20;;;;;;5049505;28;20029;-64
2022/03/19 05:42:09;;;;;;;14.20;5.90;;;8.70;70.10;;;;;;5047168;28;20028;-64
2022/03/19 05:44:35;;;;;;;15.48;5.45;;;8.70;70.70;;;;;;5038748;28;20033;-65
2022/03/19 05:47:01;;;;;;;10.20;4.72;;;8.70;69.90;;;;;;5034730;28;20064;-64
2022/03/19 05:49:28;;;;;;;9.93;4.50;;;8.70;69.90;;;;;;5058469;28;20495;-65
2022/03/19 05:51:55;;;;;;;16.13;5.43;;;8.60;69.90;;;;;;5044960;28;20493;-64
2022/03/19 05:54:20;;;;;;;10.85;4.53;;;8.60;69.90;;;;;;5047400;28;20033;-60
2022/03/19 05:56:46;;;;;;;11.90;4.43;;;8.60;69.70;;;;;;5047227;28;20369;-60
2022/03/19 05:59:12;;;;;;;16.67;5.63;;;8.50;69.60;;;;;;5038431;28;20056;-60
2022/03/19 06:01:38;;;;;;;11.07;4.68;;;8.50;69.60;;;;;;5034951;28;20025;-60
2022/03/19 06:04:04;;;;;;;9.65;4.38;;;8.50;69.50;;;;;;5035288;28;20112;-60
2022/03/19 06:06:30;;;;;;;10.93;4.65;;;8.50;69.50;;;;;;5047559;28;20053;-60
2022/03/19 06:08:56;;;;;;;10.98;4.90;;;8.50;69.40;;;;;;5027926;28;20060;-64
2022/03/19 06:11:22;;;;;;;13.32;5.05;;;8.50;69.40;;;;;;5043104;28;20436;-64
2022/03/19 06:13:48;;;;;;;11.65;3.83;;;8.40;69.90;;;;;;5028587;28;20477;-65
2022/03/19 06:16:14;;;;;;;13.10;4.95;;;8.40;69.30;;;;;;5047776;28;20112;-64
2022/03/19 06:18:45;;;;;;;12.05;4.45;;;8.40;69.30;;;;;;5039224;28;20109;-64
2022/03/19 06:21:11;;;;;;;9.63;4.85;;;8.40;69.20;;;;;;5040006;28;20032;-64
2022/03/19 06:23:37;;;;;;;10.55;4.65;;;8.40;69.20;;;;;;5041467;28;20514;-65
2022/03/19 06:26:03;;;;;;;15.60;4.85;;;8.50;69.20;;;;;;5039726;28;20026;-64
2022/03/19 06:28:28;;;;;;;9.25;4.32;;;8.40;69.10;;;;;;5043528;28;20471;-64
2022/03/19 06:30:54;;;;;;;10.57;4.85;;;8.40;69.10;;;;;;5043848;28;20032;-64
2022/03/19 06:33:20;;;;;;;12.85;4.85;;;8.40;69.10;;;;;;5035028;28;20079;-65
2022/03/19 06:38:30;;;;;;;13.52;4.18;;;8.40;69.50;;;;;;5043317;28;20044;-64
2022/03/19 06:40:57;;;;;;;12.77;4.68;;;8.40;68.90;;;;;;5046715;28;20021;-64
2022/03/19 06:43:24;;;;;;;10.07;4.30;;;8.40;68.70;;;;;;5045503;28;20052;-64
2022/03/19 06:45:50;;;;;;;12.30;4.18;;;8.40;68.60;;;;;;5028748;28;20041;-64
2022/03/19 06:48:16;;;;;;;10.52;4.47;;;8.50;68.60;;;;;;5041020;28;20032;-65
2022/03/19 06:50:42;;;;;;;11.32;4.25;;;8.50;68.50;;;;;;5040740;28;20396;-65
2022/03/19 06:53:08;;;;;;;8.98;4.32;;;8.50;68.30;;;;;;5034642;28;20121;-65
2022/03/19 06:55:33;;;;;;;7.88;3.70;;;8.50;68.10;;;;;;5042562;28;20029;-65
2022/03/19 06:57:59;;;;;;;17.30;4.00;;;8.50;68.10;;;;;;5042136;28;20046;-65
2022/03/19 07:00:26;;;;;;;7.47;3.83;;;8.60;67.90;;;;;;5039755;28;20380;-65
2022/03/19 07:02:54;;;;;;;11.95;3.92;;;8.60;67.70;;;;;;5038771;28;20033;-65
2022/03/19 07:05:21;;;;;;;7.45;3.70;;;8.60;67.30;;;;;;5038260;28;20056;-65
2022/03/19 07:07:47;;;;;;;8.07;3.45;;;8.60;67.00;;;;;;5030287;28;20064;-64
2022/03/19 07:10:15;;;;;;;10.57;4.10;;;8.60;67.00;;;;;;5042185;28;20037;-60
2022/03/19 07:12:45;;;;;;;9.30;4.13;;;8.60;66.70;;;;;;5040717;28;20040;-60
2022/03/19 07:15:16;;;;;;;8.07;3.88;;;8.60;67.30;;;;;;5043027;28;20104;-64
2022/03/19 07:17:43;;;;;;;9.73;3.58;;;8.70;66.80;;;;;;5034324;28;20050;-64
2022/03/19 07:20:11;;;;;;;10.23;4.10;;;8.70;66.70;;;;;;5040513;28;20033;-61
2022/03/19 07:23:13;;;;;;;10.13;4.13;;;8.70;66.80;;;;;;5039853;28;20029;-61
2022/03/19 07:25:39;;;;;;;7.68;3.95;;;8.80;66.90;;;;;;5007353;28;20038;-60
2022/03/19 07:28:19;;;;;;;11.73;4.38;;;8.80;66.90;;;;;;5032782;28;20060;-60
2022/03/19 07:30:46;;;;;;;12.32;4.03;;;8.80;67.00;;;;;;5044679;28;20113;-59
2022/03/19 07:33:12;;;;;;;10.13;4.28;;;8.80;67.00;;;;;;5037458;28;20108;-60
2022/03/19 07:35:39;;;;;;;12.55;4.60;;;8.80;67.60;;;;;;5046062;28;20108;-61
2022/03/19 07:38:06;;;;;;;19.35;5.32;;;8.90;67.10;;;;;;5038440;28;20109;-65
2022/03/19 07:43:17;;;;;;;15.70;5.22;;;8.90;67.30;;;;;;5037010;28;20048;-65
2022/03/19 07:45:43;;;;;;;9.25;4.57;;;9.00;67.40;;;;;;5042702;28;20399;-65
2022/03/19 07:48:09;;;;;;;16.95;4.95;;;9.00;67.40;;;;;;5043378;28;20058;-65
2022/03/19 07:50:35;;;;;;;10.30;4.57;;;9.00;67.40;;;;;;5032461;28;20461;-65
2022/03/19 07:53:02;;;;;;;9.23;4.25;;;9.00;67.30;;;;;;5039788;28;20475;-65
2022/03/19 07:55:27;;;;;;;13.65;4.43;;;9.10;67.20;;;;;;5032319;28;20039;-65
2022/03/19 07:57:53;;;;;;;8.23;4.30;;;9.20;67.10;;;;;;5044207;28;20025;-65
2022/03/19 08:00:19;;;;;;;10.30;4.70;;;9.20;67.00;;;;;;5036593;28;20061;-65
2022/03/19 08:02:45;;;;;;;10.70;4.05;;;9.20;67.00;;;;;;5047635;28;20059;-65
2022/03/19 08:05:12;;;;;;;10.20;4.78;;;9.30;66.90;;;;;;5042471;28;20049;-61
2022/03/19 08:07:39;;;;;;;12.13;5.57;;;9.30;66.60;;;;;;5044651;28;20075;-61
2022/03/19 08:10:06;;;;;;;12.95;4.63;;;9.40;66.40;;;;;;5041410;28;20037;-65
2022/03/19 08:12:31;;;;;;;11.82;4.32;;;9.40;66.30;;;;;;5038755;28;20025;-65
2022/03/19 08:14:59;;;;;;;9.85;3.90;;;9.40;66.10;;;;;;5044202;28;20388;-61
2022/03/19 08:17:26;;;;;;;12.23;4.07;;;9.50;65.90;;;;;;5047263;28;20025;-61
2022/03/19 08:19:52;;;;;;;7.47;3.75;;;9.50;65.80;;;;;;5035142;28;20038;-61
2022/03/19 08:22:18;;;;;;;11.82;4.32;;;9.60;65.80;;;;;;5038105;28;20094;-60
2022/03/19 08:24:46;;;;;;;9.50;4.57;;;9.70;65.50;;;;;;5047694;28;20063;-60
2022/03/19 08:27:11;;;;;;;7.93;3.80;;;9.80;65.20;;;;;;5042642;28;20039;-64
2022/03/19 08:29:37;;;;;;;12.93;4.63;;;9.80;64.90;;;;;;5048037;28;20033;-64
2022/03/19 08:32:04;;;;;;;9.60;4.18;;;9.80;64.50;;;;;;5042192;28;20025;-60
2022/03/19 08:34:30;;;;;;;7.85;3.88;;;9.90;64.50;;;;;;5042119;28;20048;-60
2022/03/19 08:36:55;;;;;;;11.45;4.30;;;10.00;64.20;;;;;;5045739;28;20384;-62
2022/03/19 08:42:06;;;;;;;10.27;3.20;;;10.10;63.50;;;;;;5046942;28;20047;-64
2022/03/19 08:44:32;;;;;;;8.55;3.65;;;10.10;62.80;;;;;;5049896;28;20115;-64
2022/03/19 08:46:58;;;;;;;6.15;3.70;;;10.20;62.90;;;;;;5052055;28;20040;-64
2022/03/19 08:49:24;;;;;;;10.70;3.75;;;10.30;62.80;;;;;;5037060;28;20033;-65
2022/03/19 08:51:50;;;;;;;11.75;3.50;;;10.30;62.30;;;;;;5046247;28;20040;-64
2022/03/19 08:54:18;;;;;;;11.70;3.58;;;10.30;61.40;;;;;;5047169;28;20029;-61
2022/03/19 08:56:46;;;;;;;8.70;3.70;;;10.40;60.80;;;;;;5039371;28;20121;-61
2022/03/19 08:59:12;;;;;;;7.85;3.55;;;10.40;60.70;;;;;;5031208;28;20493;-61
2022/03/19 09:01:39;;;;;;;7.82;3.70;;;10.50;60.40;;;;;;5037070;28;20116;-61
2022/03/19 09:04:06;;;;;;;11.18;3.45;;;10.60;59.90;;;;;;5049174;28;20067;-61
2022/03/19 09:06:32;;;;;;;9.27;3.85;;;10.70;59.70;;;;;;5037035;28;20065;-61
2022/03/19 09:09:00;;;;;;;7.53;2.97;;;10.70;59.80;;;;;;5042883;28;20033;-61
2022/03/19 09:11:26;;;;;;;8.50;2.85;;;10.90;59.40;;;;;;5053691;28;20046;-61
2022/03/19 09:13:53;;;;;;;7.32;2.85;;;10.90;58.70;;;;;;5046849;28;20048;-65
2022/03/19 09:16:20;;;;;;;6.07;2.72;;;11.10;58.90;;;;;;5040453;28;20057;-65
2022/03/19 09:18:46;;;;;;;7.70;3.00;;;11.20;57.60;;;;;;5040974;28;20055;-61
2022/03/19 09:21:12;;;;;;;5.55;2.38;;;11.30;56.80;;;;;;5038689;28;20044;-60
2022/03/19 09:23:38;;;;;;;7.90;3.00;;;11.30;56.70;;;;;;5041468;28;20030;-61
2022/03/19 09:26:03;;;;;;;8.55;3.05;;;11.40;56.50;;;;;;5039854;28;20021;-61
2022/03/19 09:28:29;;;;;;;5.28;2.53;;;11.50;55.80;;;;;;5049137;28;20025;-61
2022/03/19 09:30:55;;;;;;;11.45;2.72;;;11.60;54.90;;;;;;5031725;28;20564;-61
2022/03/19 09:33:21;;;;;;;3.55;2.20;;;11.60;53.90;;;;;;5048751;28;20087;-61
2022/03/19 09:35:47;;;;;;;7.25;2.50;;;11.60;54.00;;;;;;5051005;28;20120;-61
2022/03/19 09:38:14;;;;;;;4.82;1.98;;;11.70;52.60;;;;;;5032210;28;20458;-61
2022/03/19 09:40:41;;;;;;;6.50;2.60;;;11.80;51.90;;;;;;5029569;28;20117;-61
2022/03/19 09:43:07;;;;;;;4.30;2.25;;;11.80;51.50;;;;;;5047467;28;20091;-61
2022/03/19 09:45:34;;;;;;;4.82;2.28;;;11.90;51.00;;;;;;5046243;28;20045;-61
2022/03/19 09:48:01;;;;;;;7.80;2.53;;;11.90;49.30;;;;;;5030102;28;20632;-61
2022/03/19 09:50:26;;;;;;;7.38;2.08;;;12.00;48.70;;;;;;5048754;28;20064;-61
2022/03/19 09:52:54;;;;;;;5.55;2.13;;;12.10;48.90;;;;;;5032180;28;20063;-61
2022/03/19 09:55:26;;;;;;;4.90;2.00;;;12.20;48.00;;;;;;5048560;28;20047;-65
2022/03/19 09:57:56;;;;;;;2.60;1.55;;;12.20;47.80;;;;;;5047345;28;20420;-65
2022/03/19 10:00:22;;;;;;;6.90;1.55;;;12.30;47.30;;;;;;5049688;28;20025;-61
2022/03/19 10:03:04;;;;;;;3.85;2.05;;;12.40;46.90;;;;;;5046483;28;20104;-61
2022/03/19 10:11:15;;;;;;;2.38;1.50;;;12.50;45.50;;;;;;5044396;28;20045;-66
2022/03/19 10:13:44;;;;;;;5.57;1.80;;;12.70;45.60;;;;;;5046130;28;20453;-65
2022/03/19 10:16:11;;;;;;;3.92;1.65;;;12.70;44.40;;;;;;5047523;28;20483;-61
2022/03/19 10:18:37;;;;;;;4.97;2.20;;;12.80;43.30;;;;;;5044807;28;20021;-61
2022/03/19 10:21:14;;;;;;;4.85;2.30;;;12.80;43.70;;;;;;5035884;28;20116;-65
2022/03/19 10:23:41;;;;;;;3.72;1.80;;;12.90;44.30;;;;;;5044622;28;20037;-65
2022/03/19 10:26:08;;;;;;;3.08;1.80;;;13.00;44.30;;;;;;5042054;28;20403;-65
2022/03/19 10:28:37;;;;;;;4.82;1.95;;;13.10;43.90;;;;;;5037167;28;20107;-65
2022/03/19 10:31:03;;;;;;;2.03;1.50;;;13.20;43.40;;;;;;5040270;28;20059;-65
2022/03/19 10:33:31;;;;;;;6.10;2.25;;;13.30;43.00;;;;;;5042058;28;20100;-61
2022/03/19 10:36:09;;;;;;;2.65;1.45;;;13.40;42.60;;;;;;5030561;28;20020;-61
2022/03/19 10:38:46;;;;;;;5.43;2.38;;;13.50;42.30;;;;;;5045326;28;20021;-65
2022/03/19 10:41:16;;;;;;;4.35;1.88;;;13.50;42.30;;;;;;5045993;28;20033;-59
2022/03/19 10:43:45;;;;;;;4.85;1.88;;;13.60;40.60;;;;;;5043115;28;20025;-59
2022/03/19 10:46:11;;;;;;;4.88;1.55;;;13.70;40.90;;;;;;5048730;28;20025;-60
2022/03/19 10:48:37;;;;;;;4.88;1.90;;;13.80;41.30;;;;;;5036475;28;20037;-60
2022/03/19 10:51:21;;;;;;;4.45;1.88;;;13.90;40.70;;;;;;5032160;28;20021;-60
2022/03/19 10:53:48;;;;;;;5.20;1.70;;;14.00;40.30;;;;;;5048737;28;20060;-64
2022/03/19 10:56:15;;;;;;;3.42;1.77;;;14.00;40.30;;;;;;5048772;28;20476;-60
2022/03/19 10:58:41;;;;;;;7.90;1.92;;;14.10;39.70;;;;;;5036602;28;20021;-65
2022/03/19 11:01:09;;;;;;;3.40;1.60;;;14.10;40.20;;;;;;5037178;28;20400;-65
2022/03/19 11:03:39;;;;;;;5.00;2.00;;;14.30;39.80;;;;;;5040614;28;20033;-65
2022/03/19 11:06:07;;;;;;;5.93;1.92;;;14.40;38.80;;;;;;5048249;28;20044;-61
2022/03/19 11:08:43;;;;;;;5.95;1.60;;;14.50;38.30;;;;;;5046934;28;20533;-61
2022/03/19 11:11:27;;;;;;;5.47;1.95;;;14.50;37.50;;;;;;5044854;28;20055;-61
2022/03/19 11:13:57;;;;;;;4.07;1.20;;;14.60;37.30;;;;;;5045864;28;20031;-61
2022/03/19 11:16:25;;;;;;;1.95;1.52;;;14.70;37.20;;;;;;5048996;28;20028;-65
2022/03/19 11:18:52;;;;;;;4.03;1.73;;;14.80;37.20;;;;;;5037089;28;20029;-65
2022/03/19 11:21:22;;;;;;;8.18;1.70;;;14.90;36.70;;;;;;5046035;28;20032;-65
2022/03/19 11:24:00;;;;;;;4.35;1.33;;;15.00;36.70;;;;;;5045096;28;20075;-65
2022/03/19 11:26:30;;;;;;;5.15;1.27;;;15.10;35.80;;;;;;5047006;28;20487;-65
2022/03/19 11:28:59;;;;;;;2.65;1.17;;;15.20;34.40;;;;;;5049914;28;20022;-65
2022/03/19 11:31:28;;;;;;;4.13;1.75;;;15.30;33.90;;;;;;5043167;28;20040;-65
2022/03/19 11:34:17;;;;;;;6.45;1.88;;;15.30;33.70;;;;;;5040905;28;20021;-65
2022/03/19 11:37:00;;;;;;;3.65;1.50;;;15.40;33.60;;;;;;5048948;28;20110;-61
2022/03/19 11:39:27;;;;;;;4.45;1.35;;;15.40;34.30;;;;;;5049877;28;20025;-61
2022/03/19 11:41:53;;;;;;;4.78;1.30;;;15.50;34.70;;;;;;5050159;28;20040;-61
2022/03/19 11:44:23;;;;;;;4.70;1.70;;;15.60;34.40;;;;;;5051405;28;20029;-61
2022/03/19 11:47:06;;;;;;;9.23;1.65;;;15.70;34.40;;;;;;5051620;28;20045;-63
2022/03/19 11:49:49;;;;;;;5.07;1.48;;;15.80;34.30;;;;;;5043229;28;20496;-62
2022/03/19 11:52:23;;;;;;;;;;;15.90;33.30;;;;;;5040978;28;20033;-61
2022/03/19 11:55:04;;;;;;;2.53;1.30;;;15.90;33.30;;;;;;5049288;28;19923;-61
2022/03/19 11:57:49;;;;;;;4.22;1.23;;;15.90;33.20;;;;;;5045194;28;20033;-61
2022/03/19 12:00:17;;;;;;;3.35;0.93;;;16.10;30.90;;;;;;5039556;28;20029;-61
2022/03/19 12:03:12;;;;;;;1.65;0.80;;;16.10;30.90;;;;;;5048299;28;20403;-61
2022/03/19 12:05:44;;;;;;;2.10;0.93;;;16.20;31.10;;;;;;5035068;28;20033;-61
2022/03/19 12:08:16;;;;;;;5.10;1.10;;;16.30;31.00;;;;;;5041743;28;20403;-60
2022/03/19 12:10:54;;;;;;;3.97;1.42;;;16.40;31.00;;;;;;5041088;28;20053;-62
2022/03/19 12:13:29;;;;;;;3.35;1.20;;;16.50;31.10;;;;;;5036382;28;20052;-60
2022/03/19 12:15:59;;;;;;;3.90;1.13;;;16.50;31.20;;;;;;5040869;28;20056;-64
2022/03/19 12:18:29;;;;;;;4.85;1.42;;;16.60;31.60;;;;;;5031812;28;20060;-64
2022/03/19 12:21:13;;;;;;;4.63;1.63;;;16.70;31.80;;;;;;5035718;28;20286;-64
2022/03/19 12:24:02;;;;;;;5.22;1.75;;;16.80;32.30;;;;;;5042676;28;20078;-64
2022/03/19 12:26:36;;;;;;;2.83;1.42;;;17.00;32.70;;;;;;5051213;28;20147;-64
2022/03/19 12:29:05;;;;;;;2.95;1.20;;;17.10;32.50;;;;;;5038990;28;20040;-64
2022/03/19 12:31:36;;;;;;;7.65;1.58;;;17.20;32.00;;;;;;5040281;28;20033;-64
2022/03/19 12:34:04;;;;;;;6.63;1.57;;;17.20;31.40;;;;;;5052832;28;20111;-60
2022/03/19 12:36:31;;;;;;;5.55;1.55;;;17.30;30.70;;;;;;5052518;28;20025;-60
2022/03/19 12:39:03;;;;;;;2.97;1.40;;;17.20;30.90;;;;;;5035230;28;20045;-60
2022/03/19 12:41:32;;;;;;;5.30;1.67;;;17.20;31.10;;;;;;5047811;28;20376;-60
2022/03/19 12:44:05;;;;;;;4.95;1.98;;;17.20;30.60;;;;;;5047844;28;20040;-60
2022/03/19 12:46:33;;;;;;;4.00;1.58;;;17.20;30.60;;;;;;5034470;28;20029;-60
2022/03/19 12:49:10;;;;;;;4.40;1.58;;;17.30;30.70;;;;;;5053084;28;20078;-60
2022/03/19 12:51:54;;;;;;;5.05;1.77;;;17.30;30.80;;;;;;5052062;28;20025;-60
2022/03/19 12:54:31;;;;;;;3.97;1.55;;;17.40;31.30;;;;;;5051555;28;20025;-60
2022/03/19 12:57:10;;;;;;;5.25;1.75;;;17.60;31.70;;;;;;5044037;28;20033;-60
2022/03/19 12:59:37;;;;;;;4.45;1.70;;;17.60;31.20;;;;;;5047543;28;20017;-61
2022/03/19 13:02:03;;;;;;;3.35;1.13;;;17.70;31.30;;;;;;5049234;28;20064;-60
2022/03/19 13:04:31;;;;;;;4.07;1.63;;;17.80;31.30;;;;;;5045468;28;20384;-60
2022/03/19 13:06:58;;;;;;;2.58;1.38;;;17.90;31.20;;;;;;5047955;28;20025;-61
2022/03/19 13:09:31;;;;;;;4.72;1.80;;;17.90;30.20;;;;;;5044560;28;20033;-62
2022/03/19 13:11:57;;;;;;;139.77;14.63;;;17.90;30.00;;;;;;5047227;28;20029;-62